CheckWX is a tool to help pilots better visualize weather data.  It is not intended as a substitute for an official pre-flight weather briefing.

14:16:14 UTC

YPWR METAR
Woomera Airfield Airport
Woomera, Australia
Current

46 mins ago

YPWR 151330Z AUTO 36013KT 9999 // NCD 23/M02 Q1016 RF00.0/000.0
Observed
Sep-15 @ 13:30 UTC
Wind
  • 360° at 13 KTS
Visibility
10,000+ meters
Flight Rules
VFR
Cloud Levels
  • Clear skies
Temperature
23°C / 73°F
Dewpoint
-2°C / 28°F
Humidity
19%
Altimeter
30" Hg
Pressure
1015.92 hPa
Previous

1 hour ago

YPWR 151300Z AUTO 01013KT 9999 // NCD 23/M02 Q1016
Observed
Sep-15 @ 13:00 UTC
Wind
  • 010° at 13 KTS
Visibility
10,000+ meters
Flight Rules
VFR
Cloud Levels
  • Clear skies
Temperature
23°C / 73°F
Dewpoint
-2°C / 28°F
Humidity
19%
Altimeter
30" Hg
Pressure
1015.92 hPa
Previous

2 hours ago

YPWR 151230Z AUTO 01012KT 9999 // NCD 24/M03 Q1016 RF00.0/000.0
Observed
Sep-15 @ 12:30 UTC
Wind
  • 010° at 12 KTS
Visibility
10,000+ meters
Flight Rules
VFR
Cloud Levels
  • Clear skies
Temperature
24°C / 75°F
Dewpoint
-3°C / 27°F
Humidity
16%
Altimeter
30" Hg
Pressure
1015.92 hPa